Time;durP1;ratioP1;P1;durP2;ratioP2;P2;SDS_P1;SDS_P2;PMS_P1;PMS_P2;Temp;Humidity;BMP_temperature;BMP_pressure;BME280_temperature;BME280_humidity;BME280_pressure;Samples;Min_cycle;Max_cycle;Signal;HPM_P1;HPM_P2
2023/12/10 00:06:27;;;;;;;5.35;1.33;;;;;;;18.07;58.80;99026.38;20787414;28;20045;-67
2023/12/10 00:16:29;;;;;;;3.00;1.10;;;;;;;18.05;58.96;99039.19;20785849;28;20049;-66
2023/12/10 00:26:30;;;;;;;5.63;1.75;;;;;;;17.99;58.72;99046.09;20770519;28;20056;-66
2023/12/10 00:36:32;;;;;;;5.40;1.70;;;;;;;17.85;58.94;99063.88;20781109;28;20053;-66
2023/12/10 00:46:34;;;;;;;6.32;1.90;;;;;;;17.78;59.10;99065.59;20780702;28;20069;-66
2023/12/10 00:56:36;;;;;;;6.22;1.80;;;;;;;17.76;59.22;99079.25;20779779;28;20508;-66
2023/12/10 01:06:37;;;;;;;6.20;2.42;;;;;;;17.75;58.87;99085.66;20780171;28;20052;-67
2023/12/10 01:16:40;;;;;;;6.50;1.70;;;;;;;17.77;58.94;99096.22;20776537;28;20054;-68
2023/12/10 01:26:42;;;;;;;7.22;1.80;;;;;;;17.78;58.80;99114.91;20773229;28;20490;-68
2023/12/10 01:36:44;;;;;;;5.95;1.30;;;;;;;17.77;58.83;99099.78;20778234;28;20076;-66
2023/12/10 01:46:45;;;;;;;4.43;1.52;;;;;;;17.75;58.97;99100.97;20778037;28;20413;-66
2023/12/10 01:56:51;;;;;;;4.65;1.48;;;;;;;17.77;58.75;99097.09;20776361;28;20046;-66
2023/12/10 02:07:07;;;;;;;7.20;1.80;;;;;;;17.77;58.76;99102.47;20783167;28;20235;-66
2023/12/10 02:17:08;;;;;;;5.18;1.83;;;;;;;17.83;58.63;99106.28;20756579;28;20057;-66
2023/12/10 02:27:11;;;;;;;5.35;1.70;;;;;;;17.93;58.59;99098.81;20792688;28;20061;-66
2023/12/10 02:37:13;;;;;;;4.93;1.35;;;;;;;17.95;58.46;99106.69;20791918;28;20045;-66
2023/12/10 02:47:15;;;;;;;6.30;2.00;;;;;;;17.82;58.49;99062.38;20789322;28;20053;-66
2023/12/10 02:57:17;;;;;;;3.88;1.50;;;;;;;17.96;58.38;99076.06;20787619;28;20057;-66
2023/12/10 03:07:18;;;;;;;3.10;1.38;;;;;;;17.98;58.47;99106.34;20788274;28;20375;-66
2023/12/10 03:17:20;;;;;;;3.42;1.20;;;;;;;18.02;58.16;99117.63;20787286;28;20107;-67
2023/12/10 03:27:22;;;;;;;3.35;1.30;;;;;;;18.04;58.19;99084.09;20783878;28;20413;-66
2023/12/10 03:37:24;;;;;;;4.15;1.67;;;;;;;18.05;58.16;99093.84;20782213;28;20061;-66
2023/12/10 03:47:26;;;;;;;2.30;1.10;;;;;;;18.07;58.21;99091.00;20783727;28;20049;-66
2023/12/10 03:57:28;;;;;;;3.63;1.40;;;;;;;18.07;58.11;99075.66;20785959;28;20132;-66
2023/12/10 04:07:30;;;;;;;3.08;1.02;;;;;;;18.06;57.99;99084.75;20783068;28;20056;-67
2023/12/10 04:17:32;;;;;;;2.90;1.15;;;;;;;18.06;58.19;99090.13;20784978;28;20123;-67
2023/12/10 04:27:34;;;;;;;3.17;1.13;;;;;;;18.05;58.20;99099.22;20784293;28;20497;-67
2023/12/10 04:37:36;;;;;;;5.70;1.20;;;;;;;18.05;58.22;99091.16;20779264;28;20084;-67
2023/12/10 04:47:38;;;;;;;2.38;1.00;;;;;;;18.08;58.03;99080.03;20782373;28;20065;-67
2023/12/10 04:57:40;;;;;;;2.17;0.90;;;;;;;18.13;58.05;99082.19;20778871;28;20528;-66
2023/12/10 05:07:42;;;;;;;1.98;0.93;;;;;;;18.15;57.99;99065.84;20775500;28;20061;-66
2023/12/10 05:17:43;;;;;;;2.88;1.10;;;;;;;18.22;57.71;99083.78;20783348;28;20135;-66
2023/12/10 05:27:46;;;;;;;2.75;1.05;;;;;;;18.27;57.57;99089.44;20774131;28;20184;-67
2023/12/10 05:37:47;;;;;;;1.92;0.80;;;;;;;18.32;57.51;99097.00;20776821;28;20072;-66
2023/12/10 05:47:49;;;;;;;3.20;0.90;;;;;;;18.32;57.51;99115.84;20793405;28;20111;-66
2023/12/10 05:57:51;;;;;;;1.55;0.52;;;;;;;18.15;58.02;99131.31;20792356;28;20056;-66
2023/12/10 06:07:53;;;;;;;1.73;0.95;;;;;;;17.95;58.54;99149.78;20789226;28;20049;-66
2023/12/10 06:17:55;;;;;;;1.77;0.70;;;;;;;17.87;59.01;99160.59;20767860;28;20084;-66
2023/12/10 06:27:56;;;;;;;3.97;1.10;;;;;;;17.84;59.30;99199.47;20772675;28;20045;-66
2023/12/10 06:37:58;;;;;;;2.67;1.00;;;;;;;17.78;59.42;99219.03;20764569;28;20072;-66
2023/12/10 06:48:00;;;;;;;3.67;1.00;;;;;;;17.78;59.43;99248.63;20746143;28;20045;-66
2023/12/10 06:58:02;;;;;;;3.17;1.10;;;;;;;17.79;59.46;99282.63;20749722;28;20131;-67
2023/12/10 07:08:04;;;;;;;2.13;0.95;;;;;;;17.80;59.57;99330.91;20782946;28;21135;-67
2023/12/10 07:18:06;;;;;;;3.80;1.15;;;;;;;17.80;59.56;99356.97;20774372;28;20050;-67
2023/12/10 07:28:08;;;;;;;2.25;0.95;;;;;;;17.82;59.42;99373.78;20784810;28;20053;-67
2023/12/10 07:38:12;;;;;;;3.30;0.95;;;;;;;17.81;59.59;99402.56;20784141;28;20060;-67
2023/12/10 07:48:14;;;;;;;2.67;0.80;;;;;;;17.94;59.13;99431.66;20790579;28;20127;-67
2023/12/10 07:58:16;;;;;;;2.33;0.93;;;;;;;18.07;58.74;99459.91;20788688;28;20056;-67
2023/12/10 08:08:18;;;;;;;2.47;0.82;;;;;;;18.11;58.71;99497.09;20785710;28;20519;-67
2023/12/10 08:18:20;;;;;;;2.28;0.70;;;;;;;17.99;58.63;99495.75;20785946;28;20050;-67
2023/12/10 08:28:22;;;;;;;3.08;1.15;;;;;;;18.11;58.40;99556.34;20775587;28;20057;-66
2023/12/10 08:38:31;;;;;;;2.15;0.90;;;;;;;18.01;58.44;99561.06;20934093;27;20444;-67
2023/12/10 08:48:32;;;;;;;1.50;0.68;;;;;;;18.08;58.41;99593.56;20936828;28;20407;-67
2023/12/10 08:58:34;;;;;;;1.60;0.88;;;;;;;18.08;58.61;99632.09;20939015;28;20040;-66
2023/12/10 09:08:36;;;;;;;1.55;0.90;;;;;;;18.07;58.47;99654.66;20909313;28;20045;-67
2023/12/10 09:18:38;;;;;;;2.42;0.88;;;;;;;18.05;58.37;99680.91;20918822;28;20056;-67
2023/12/10 09:28:40;;;;;;;2.63;1.00;;;;;;;18.04;58.65;99716.91;20848968;28;20056;-67
2023/12/10 09:38:42;;;;;;;1.95;0.63;;;;;;;18.05;58.38;99713.22;20816225;28;20041;-67
2023/12/10 09:48:45;;;;;;;2.42;0.85;;;;;;;18.05;58.36;99742.84;20770638;28;21591;-67
2023/12/10 09:58:47;;;;;;;2.17;0.90;;;;;;;18.04;58.39;99754.63;20835917;28;20101;-67
2023/12/10 10:08:49;;;;;;;3.30;0.93;;;;;;;18.04;58.44;99781.56;20850842;28;20060;-67
2023/12/10 10:18:50;;;;;;;2.35;0.98;;;;;;;18.05;58.45;99785.94;20839881;28;20059;-67
2023/12/10 10:28:53;;;;;;;4.32;1.10;;;;;;;18.06;58.47;99805.66;20835845;28;20118;-66
2023/12/10 10:38:56;;;;;;;3.50;1.27;;;;;;;18.06;58.45;99817.25;20821227;28;20048;-67
2023/12/10 10:48:59;;;;;;;3.13;1.17;;;;;;;18.08;58.24;99814.41;20828339;28;20052;-66
2023/12/10 10:59:01;;;;;;;2.90;1.30;;;;;;;18.08;58.32;99817.09;20826132;28;20045;-66
2023/12/10 11:09:03;;;;;;;3.20;0.98;;;;;;;18.07;58.08;99827.00;20825170;28;20060;-66
2023/12/10 11:19:05;;;;;;;3.03;1.30;;;;;;;18.08;58.24;99836.78;20855617;28;20421;-67
2023/12/10 11:29:07;;;;;;;4.45;1.38;;;;;;;18.02;58.46;99858.97;20826036;28;20320;-67
2023/12/10 11:39:15;;;;;;;4.25;1.42;;;;;;;18.06;58.73;99860.34;20858590;28;20052;-67
2023/12/10 11:49:17;;;;;;;5.05;1.30;;;;;;;18.01;59.48;99868.06;20808689;28;20056;-65
2023/12/10 11:59:19;;;;;;;3.42;1.15;;;;;;;18.04;59.72;99859.66;20797920;28;20134;-66
2023/12/10 12:09:21;;;;;;;3.88;1.40;;;;;;;18.00;59.64;99869.03;20824769;28;20644;-67
2023/12/10 12:19:29;;;;;;;3.00;1.42;;;;;;;18.03;59.48;99887.59;20797940;28;20103;-67
2023/12/10 12:29:31;;;;;;;6.10;1.45;;;;;;;18.01;59.64;99889.59;20793634;28;20421;-66
2023/12/10 12:39:33;;;;;;;3.58;1.40;;;;;;;18.01;59.36;99897.69;20844777;28;20099;-66
2023/12/10 12:49:35;;;;;;;3.88;1.17;;;;;;;18.02;59.61;99904.75;20809310;28;20068;-68
2023/12/10 12:59:38;;;;;;;4.80;1.85;;;;;;;18.03;59.66;99924.47;20819388;28;20049;-67
2023/12/10 13:09:40;;;;;;;3.88;1.30;;;;;;;18.17;59.63;99931.09;20818960;28;20057;-65
2023/12/10 13:19:42;;;;;;;4.32;1.50;;;;;;;18.34;59.22;99927.47;20830572;28;20060;-66
2023/12/10 13:29:44;;;;;;;4.55;1.35;;;;;;;18.41;58.99;99917.72;20838332;28;20046;-66
2023/12/10 13:39:46;;;;;;;4.47;1.30;;;;;;;18.45;58.77;99926.31;20837626;28;20148;-67
2023/12/10 13:49:48;;;;;;;5.88;1.90;;;;;;;18.48;58.54;99925.13;20849375;28;20187;-66
2023/12/10 13:59:50;;;;;;;3.45;1.38;;;;;;;18.52;58.43;99921.09;20835793;28;20045;-69
2023/12/10 14:09:52;;;;;;;5.15;2.00;;;;;;;18.53;58.11;99899.38;20835239;28;20053;-66
2023/12/10 14:19:54;;;;;;;4.70;1.50;;;;;;;18.58;58.16;99890.81;20828144;28;20037;-67
2023/12/10 14:29:57;;;;;;;4.03;1.58;;;;;;;18.55;57.53;99897.38;20830859;28;20048;-66
2023/12/10 14:39:59;;;;;;;2.95;1.13;;;;;;;18.54;57.39;99897.50;20831883;28;20045;-66
2023/12/10 14:50:03;;;;;;;6.07;1.48;;;;;;;18.58;56.96;99885.44;20833758;28;20060;-68
2023/12/10 15:00:06;;;;;;;4.63;1.23;;;;;;;18.59;56.68;99857.47;20829791;28;20054;-67
2023/12/10 15:10:12;;;;;;;1.83;0.95;;;;;;;18.49;56.96;99816.31;20821920;28;20053;-67
2023/12/10 15:20:15;;;;;;;3.13;1.00;;;;;;;18.66;57.08;99818.03;20813288;28;20136;-70
2023/12/10 15:30:17;;;;;;;3.58;1.17;;;;;;;18.55;56.95;99788.69;20840279;28;20049;-73
2023/12/10 15:40:19;;;;;;;5.10;1.40;;;;;;;18.79;56.67;99795.13;20850242;28;21962;-70
2023/12/10 15:50:21;;;;;;;3.05;1.50;;;;;;;18.83;57.33;99761.41;20813581;28;20048;-62
2023/12/10 16:00:23;;;;;;;7.65;1.92;;;;;;;18.74;59.46;99741.69;20810995;28;20062;-64
2023/12/10 16:10:25;;;;;;;10.07;3.30;;;;;;;18.50;62.01;99729.06;20791023;28;20616;-59
2023/12/10 16:20:27;;;;;;;7.32;3.60;;;;;;;18.33;65.23;99698.59;20821609;28;20048;-61
2023/12/10 16:30:28;;;;;;;60.80;25.90;;;;;;;18.32;67.88;99676.22;20842388;28;20052;-60
2023/12/10 16:40:31;;;;;;;15.23;5.53;;;;;;;18.37;67.76;99654.97;20838414;28;20045;-60
2023/12/10 16:50:33;;;;;;;10.65;4.00;;;;;;;18.46;66.81;99622.63;20837145;28;20061;-60
2023/12/10 17:00:36;;;;;;;8.25;3.70;;;;;;;18.62;65.96;99589.41;20853735;28;20057;-59
2023/12/10 17:10:38;;;;;;;7.35;2.88;;;;;;;18.72;65.67;99579.25;20835830;28;20049;-60
2023/12/10 17:20:39;;;;;;;9.30;3.15;;;;;;;18.82;65.08;99557.50;20834638;28;20501;-61
2023/12/10 17:30:41;;;;;;;6.45;2.67;;;;;;;18.93;64.63;99530.13;20821230;28;20058;-61
2023/12/10 17:40:43;;;;;;;6.80;2.22;;;;;;;19.01;64.44;99506.88;20822647;28;20137;-62
2023/12/10 17:50:45;;;;;;;7.80;3.00;;;;;;;18.94;64.29;99502.16;20839844;28;20084;-63
2023/12/10 18:00:52;;;;;;;6.85;2.30;;;;;;;18.87;64.53;99498.47;20836330;28;20156;-61
2023/12/10 18:10:54;;;;;;;4.10;1.80;;;;;;;18.84;63.98;99474.56;20824137;28;20053;-60
2023/12/10 18:20:59;;;;;;;6.07;1.83;;;;;;;18.86;63.56;99455.53;20832139;28;20053;-60
2023/12/10 18:31:02;;;;;;;;;;;;;;;18.80;63.54;99430.13;20828869;28;20076;-60
2023/12/10 18:41:03;;;;;;;3.72;1.70;;;;;;;18.66;63.25;99367.88;20849070;28;19932;-59
2023/12/10 18:51:05;;;;;;;5.05;1.70;;;;;;;18.58;63.23;99361.69;20844262;28;20568;-60
2023/12/10 19:01:07;;;;;;;4.03;1.63;;;;;;;18.53;62.92;99316.38;20813054;28;20049;-60
2023/12/10 19:11:12;;;;;;;4.95;1.77;;;;;;;18.51;62.62;99280.69;20807097;28;20489;-60
2023/12/10 19:21:14;;;;;;;4.25;1.60;;;;;;;18.50;62.39;99252.94;20828179;28;20044;-60
2023/12/10 19:31:15;;;;;;;3.65;1.60;;;;;;;18.47;62.26;99214.72;20845892;28;20421;-59
2023/12/10 19:41:17;;;;;;;3.97;1.50;;;;;;;18.45;62.23;99201.44;20813253;28;20049;-60
2023/12/10 19:51:19;;;;;;;3.67;1.48;;;;;;;18.40;61.99;99172.34;20814398;28;20056;-60
2023/12/10 20:01:21;;;;;;;5.80;2.05;;;;;;;18.39;61.89;99146.41;20807791;28;20053;-60
2023/12/10 20:11:23;;;;;;;2.88;1.40;;;;;;;18.34;62.09;99123.72;20827889;28;20100;-59
2023/12/10 20:21:25;;;;;;;13.07;5.38;;;;;;;18.25;62.57;99131.88;20839269;28;20136;-60
2023/12/10 20:31:27;;;;;;;4.95;2.20;;;;;;;18.10;66.65;99125.63;20852394;28;20076;-59
2023/12/10 20:41:30;;;;;;;4.72;1.60;;;;;;;18.09;67.40;99105.94;20825574;28;20049;-60
2023/12/10 20:51:32;;;;;;;3.72;1.52;;;;;;;18.12;67.09;99107.44;20824953;28;20050;-59
2023/12/10 21:01:34;;;;;;;4.13;1.45;;;;;;;18.15;66.49;99092.78;20821896;28;20045;-59
2023/12/10 21:11:35;;;;;;;3.30;1.20;;;;;;;18.15;66.24;99087.41;20825529;28;20053;-60
2023/12/10 21:21:37;;;;;;;2.30;1.00;;;;;;;18.16;65.96;99087.19;20822914;28;20049;-60
2023/12/10 21:31:39;;;;;;;2.95;1.10;;;;;;;18.10;65.89;99069.91;20854090;28;20052;-60
2023/12/10 21:41:41;;;;;;;2.67;1.35;;;;;;;18.01;66.18;99081.78;20845032;28;20444;-60
2023/12/10 21:51:43;;;;;;;3.67;1.05;;;;;;;17.96;66.30;99089.53;20882457;28;20045;-61
2023/12/10 22:01:45;;;;;;;1.95;0.80;;;;;;;17.93;66.63;99117.66;20856061;28;20053;-60
2023/12/10 22:11:46;;;;;;;2.63;1.20;;;;;;;17.92;66.02;99121.38;20857387;28;20551;-59
2023/12/10 22:21:48;;;;;;;2.13;1.00;;;;;;;17.92;65.80;99132.16;20838709;28;20049;-60
2023/12/10 22:31:50;;;;;;;2.75;0.98;;;;;;;17.93;65.80;99167.97;20835527;28;20049;-60
2023/12/10 22:41:52;;;;;;;1.35;0.80;;;;;;;17.92;65.57;99168.97;20827889;28;20064;-60
2023/12/10 22:51:54;;;;;;;2.88;0.80;;;;;;;17.93;65.61;99209.19;20824128;28;20489;-60
2023/12/10 23:01:56;;;;;;;2.50;0.88;;;;;;;17.93;65.53;99224.50;20833370;28;20110;-60
2023/12/10 23:11:58;;;;;;;3.83;1.30;;;;;;;17.93;65.25;99240.66;20831615;28;20049;-60
2023/12/10 23:22:00;;;;;;;2.88;1.13;;;;;;;17.91;65.18;99259.69;20834400;28;20057;-60
2023/12/10 23:32:02;;;;;;;4.13;1.13;;;;;;;17.94;64.87;99271.94;20827627;28;20193;-59
2023/12/10 23:42:04;;;;;;;4.40;1.30;;;;;;;17.98;64.56;99254.41;20846546;28;20115;-60
2023/12/10 23:52:05;;;;;;;3.20;1.00;;;;;;;18.07;63.93;99257.94;20835814;28;20482;-60
